Time;durP1;ratioP1;P1;durP2;ratioP2;P2;SDS_P1;SDS_P2;PMS_P1;PMS_P2;Temp;Humidity;BMP_temperature;BMP_pressure;BME280_temperature;BME280_humidity;BME280_pressure;Samples;Min_cycle;Max_cycle;Signal;HPM_P1;HPM_P2
2021/03/26 00:00:47;;;;;;;9.52;6.90;;;5.40;1.40;;;6.14;70.62;95858.03;637444;221;31726;-73
2021/03/26 00:03:16;;;;;;;8.77;6.07;;;5.40;1.40;;;6.05;70.98;95851.95;640695;221;23447;-73
2021/03/26 00:05:45;;;;;;;9.32;6.90;;;5.30;1.40;;;5.88;70.90;95855.52;634123;221;31710;-73
2021/03/26 00:08:14;;;;;;;11.40;7.47;;;5.00;1.40;;;5.73;72.32;95857.48;642431;221;23495;-73
2021/03/26 00:10:43;;;;;;;7.73;7.00;;;4.80;1.40;;;5.67;72.79;95857.73;637859;221;28774;-73
2021/03/26 00:13:12;;;;;;;7.57;5.37;;;4.70;1.40;;;5.70;72.65;95862.42;641336;221;24557;-72
2021/03/26 00:15:41;;;;;;;10.30;6.37;;;4.90;1.40;;;5.63;72.43;95863.04;641622;221;26977;-72
2021/03/26 00:18:10;;;;;;;8.13;6.47;;;4.80;1.40;;;5.50;72.81;95867.85;637154;221;31780;-72
2021/03/26 00:20:39;;;;;;;8.63;6.37;;;4.50;1.40;;;5.27;74.59;95865.67;640664;221;23447;-74
2021/03/26 00:23:08;;;;;;;7.27;6.47;;;4.50;1.40;;;5.27;74.95;95863.36;654577;216;26676;-72
2021/03/26 00:28:15;;;;;;;9.43;7.07;;;4.60;1.40;;;5.45;74.16;95869.87;620072;222;31944;-73
2021/03/26 00:30:44;;;;;;;10.23;6.73;;;4.80;1.40;;;5.53;73.71;95865.23;618947;229;26889;-73
2021/03/26 00:35:51;;;;;;;8.52;6.80;;;4.90;1.40;;;5.59;73.30;95865.07;618875;226;32508;-73
2021/03/26 00:38:20;;;;;;;8.10;6.83;;;5.00;1.40;;;5.57;73.34;95867.30;618553;230;23518;-73
2021/03/26 00:40:49;;;;;;;7.93;6.50;;;4.90;1.40;;;5.58;73.22;95863.56;615052;230;26322;-73
2021/03/26 00:43:18;;;;;;;9.45;6.72;;;5.00;1.40;;;5.60;73.18;95862.06;611304;229;32599;-73
2021/03/26 00:45:47;;;;;;;8.63;7.20;;;5.00;1.40;;;5.55;73.33;95860.40;612142;230;32392;-73
2021/03/26 00:50:55;;;;;;;7.47;6.57;;;4.90;1.40;;;5.49;73.66;95862.90;648866;216;31549;-73
2021/03/26 00:53:28;;;;;;;7.93;6.70;;;4.80;1.40;;;5.47;73.87;95863.11;643621;220;23448;-73
2021/03/26 00:55:57;;;;;;;8.48;6.70;;;4.80;1.40;;;5.42;74.17;95864.86;638751;219;31939;-73
2021/03/26 00:58:26;;;;;;;9.37;6.30;;;4.80;1.40;;;5.34;74.67;95857.38;668264;211;23436;-73
2021/03/26 01:00:55;;;;;;;7.47;5.53;;;4.70;1.40;;;5.19;75.38;95859.79;656614;216;24447;-73
2021/03/26 01:03:25;;;;;;;8.97;6.70;;;4.40;1.40;;;5.11;75.61;95855.02;656568;216;24446;-73
2021/03/26 01:05:54;;;;;;;8.90;5.90;;;4.40;1.40;;;5.04;75.84;95854.44;670507;211;24443;-73
2021/03/26 01:08:23;;;;;;;8.50;6.03;;;4.30;1.40;;;4.87;77.15;95848.88;642293;220;24553;-74
2021/03/26 01:10:53;;;;;;;8.50;6.37;;;4.10;1.40;;;4.68;78.17;95850.00;668367;211;24447;-73
2021/03/26 01:13:22;;;;;;;7.50;6.10;;;3.90;1.40;;;4.62;78.45;95853.04;653991;216;24450;-73
2021/03/26 01:15:51;;;;;;;8.18;7.30;;;3.90;1.40;;;4.64;78.42;95855.05;648610;216;31601;-73
2021/03/26 01:18:24;;;;;;;6.90;6.20;;;3.90;1.40;;;4.72;78.46;95857.28;668931;211;23595;-73
2021/03/26 01:20:53;;;;;;;11.10;6.97;;;4.00;1.40;;;4.81;78.06;95854.92;670569;211;24438;-73
2021/03/26 01:25:56;;;;;;;8.00;6.80;;;4.10;1.40;;;4.73;78.38;95855.41;638678;216;31752;-73
2021/03/26 01:28:25;;;;;;;6.40;5.77;;;4.00;1.40;;;4.72;78.43;95857.33;627060;224;23508;-72
2021/03/26 01:30:54;;;;;;;7.95;6.80;;;4.00;1.40;;;4.65;78.46;95851.32;623732;225;32227;-73
2021/03/26 01:35:51;;;;;;;7.68;6.70;;;3.80;1.40;;;4.48;79.17;95851.64;621177;226;31970;-73
2021/03/26 01:38:20;;;;;;;8.33;6.47;;;3.70;1.40;;;4.26;80.70;95847.05;614839;229;27171;-73
2021/03/26 01:40:49;;;;;;;7.90;6.60;;;3.50;1.40;;;4.19;81.33;95851.17;616498;229;24617;-74
2021/03/26 01:43:19;;;;;;;11.23;6.97;;;3.40;1.40;;;4.29;81.43;95844.85;627937;225;26740;-73
2021/03/26 01:45:48;;;;;;;6.77;5.90;;;3.60;1.40;;;4.34;80.88;95844.95;623743;229;24606;-73
2021/03/26 01:48:35;;;;;;;6.80;6.17;;;3.70;1.40;;;4.34;80.35;95838.72;622144;230;25260;-73
2021/03/26 01:51:17;;;;;;;9.10;7.25;;;3.60;1.40;;;4.21;81.42;95835.73;647190;216;42200;-73
2021/03/26 01:53:46;;;;;;;7.93;6.63;;;3.50;1.40;;;4.08;82.77;95832.36;642601;220;24061;-73
2021/03/26 01:56:15;;;;;;;7.70;6.90;;;3.40;1.40;;;4.07;82.81;95830.27;639689;221;26611;-73
2021/03/26 01:58:44;;;;;;;8.77;6.50;;;3.30;1.40;;;4.00;83.60;95826.88;642193;220;24628;-73
2021/03/26 02:01:15;;;;;;;8.43;6.23;;;3.30;1.40;;;3.96;83.77;95828.88;640301;220;24684;-73
2021/03/26 02:03:45;;;;;;;9.27;6.60;;;3.20;1.40;;;3.97;84.14;95829.75;642112;221;24490;-73
2021/03/26 02:06:19;;;;;;;7.03;6.33;;;3.30;1.40;;;4.04;84.02;95832.23;642098;221;26659;-73
2021/03/26 02:08:48;;;;;;;7.10;6.40;;;3.40;1.40;;;4.09;83.99;95830.88;642348;220;24877;-73
2021/03/26 02:11:43;;;;;;;8.30;6.43;;;3.50;1.40;;;4.13;83.82;95830.14;639380;221;24526;-73
2021/03/26 02:14:14;;;;;;;7.27;6.60;;;3.50;1.40;;;4.11;84.15;95828.72;641574;220;24514;-73
2021/03/26 02:16:43;;;;;;;8.97;6.13;;;3.50;1.40;;;4.07;83.39;95826.34;639545;221;24610;-73
2021/03/26 02:21:46;;;;;;;9.60;6.50;;;3.40;1.40;;;4.07;84.28;95830.70;647392;216;31577;-72
2021/03/26 02:24:15;;;;;;;12.90;7.00;;;3.40;1.40;;;4.03;84.59;95826.27;642196;221;23535;-73
2021/03/26 02:26:44;;;;;;;9.65;7.40;;;3.30;1.40;;;3.98;84.83;95831.47;630077;221;31917;-72
2021/03/26 02:31:48;;;;;;;8.68;7.03;;;3.20;1.40;;;3.88;85.77;95838.80;651300;215;31592;-73
2021/03/26 02:36:31;;;;;;;8.50;7.30;;;3.10;1.40;;;3.84;85.89;95838.55;647730;212;31660;-73
2021/03/26 02:39:11;;;;;;;7.93;6.75;;;3.00;1.40;;;3.71;86.59;95840.63;647407;216;31638;-73
2021/03/26 02:41:41;;;;;;;8.60;6.87;;;3.00;1.40;;;3.64;86.71;95839.43;642622;220;27745;-73
2021/03/26 02:44:16;;;;;;;8.37;6.40;;;2.90;1.40;;;3.56;87.52;95842.34;639657;221;24535;-74
2021/03/26 02:46:49;;;;;;;7.77;7.13;;;2.90;1.40;;;3.50;88.16;95843.53;639963;220;24680;-73
2021/03/26 02:49:41;;;;;;;7.80;6.60;;;2.80;1.40;;;3.51;88.27;95845.73;667568;211;24531;-73
2021/03/26 02:52:14;;;;;;;7.20;6.50;;;2.80;1.40;;;3.47;88.40;95850.61;672433;211;24416;-73
2021/03/26 02:54:48;;;;;;;7.80;6.63;;;2.70;1.40;;;3.42;89.06;95844.88;669671;211;27640;-74
2021/03/26 02:57:18;;;;;;;8.93;6.43;;;2.70;1.40;;;3.42;89.10;95847.34;666939;211;24430;-73
2021/03/26 02:59:48;;;;;;;7.43;5.83;;;2.80;1.40;;;3.46;88.99;95843.80;670764;211;24416;-73
2021/03/26 03:02:17;;;;;;;9.63;7.30;;;2.80;1.40;;;3.49;88.61;95844.05;664833;211;41955;-73
2021/03/26 03:04:49;;;;;;;7.47;6.77;;;2.80;1.40;;;3.48;88.86;95844.57;671424;211;23381;-73
2021/03/26 03:07:23;;;;;;;8.17;6.33;;;2.80;1.40;;;3.52;89.05;95841.77;670969;211;24605;-73
2021/03/26 03:09:52;;;;;;;6.57;5.97;;;2.80;1.40;;;3.57;88.58;95836.72;642845;220;24493;-73
2021/03/26 03:12:30;;;;;;;8.67;6.70;;;2.80;1.40;;;3.60;88.30;95847.09;654182;216;26532;-73
2021/03/26 03:15:04;;;;;;;8.73;7.20;;;2.80;1.40;;;3.61;88.00;95851.34;663785;211;31435;-73
2021/03/26 03:17:36;;;;;;;7.40;6.50;;;2.90;1.40;;;3.64;87.81;95856.21;666539;211;23431;-73
2021/03/26 03:23:05;;;;;;;7.78;6.15;;;2.90;1.40;;;3.59;87.82;95848.65;619674;222;31852;-73
2021/03/26 03:25:34;;;;;;;7.30;6.60;;;2.80;1.40;;;3.55;88.17;95842.06;610876;230;23583;-73
2021/03/26 03:28:29;;;;;;;8.57;6.50;;;2.80;1.40;;;3.40;89.37;95838.27;603636;233;25732;-73
2021/03/26 03:31:35;;;;;;;7.65;5.85;;;2.70;1.40;;;3.52;88.16;95837.87;647004;216;31565;-73
2021/03/26 03:36:02;;;;;;;7.03;5.93;;;2.80;1.40;;;3.62;88.26;95829.97;620486;226;32484;-73
2021/03/26 03:38:35;;;;;;;6.20;5.03;;;2.90;1.40;;;3.65;87.92;95825.23;614830;229;24610;-73
2021/03/26 03:41:09;;;;;;;5.73;5.23;;;2.90;1.40;;;3.65;87.87;95825.23;619036;229;25005;-72
2021/03/26 03:43:39;;;;;;;6.87;5.50;;;2.90;1.40;;;3.63;87.54;95826.06;618931;229;24681;-73
2021/03/26 03:46:09;;;;;;;5.17;4.67;;;2.90;1.40;;;3.46;88.18;95826.70;620826;229;25687;-73
2021/03/26 03:48:46;;;;;;;5.10;4.60;;;2.70;1.40;;;3.32;89.00;95823.78;629159;225;24592;-73
2021/03/26 03:51:16;;;;;;;6.17;5.33;;;2.60;1.40;;;3.28;89.63;95819.92;629155;225;25647;-73
2021/03/26 03:53:46;;;;;;;7.47;4.93;;;2.60;1.40;;;3.31;89.22;95823.38;622025;225;34909;-73
2021/03/26 03:58:49;;;;;;;5.55;5.00;;;2.60;1.40;;;3.16;90.07;95825.37;649817;216;31705;-72
2021/03/26 04:01:24;;;;;;;6.87;5.70;;;2.50;1.40;;;3.04;91.01;95830.78;640752;221;23498;-73
2021/03/26 04:03:56;;;;;;;8.25;5.45;;;2.40;1.40;;;3.00;91.39;95831.00;635258;221;31943;-73
2021/03/26 04:06:26;;;;;;;5.70;5.20;;;2.30;1.40;;;2.87;91.45;95834.75;643037;221;27791;-73
2021/03/26 04:08:57;;;;;;;6.27;5.67;;;2.00;1.40;;;2.89;89.76;95843.08;639097;221;24517;-73
2021/03/26 04:11:31;;;;;;;7.73;5.20;;;1.70;1.40;;;2.62;91.43;95838.70;638849;221;24524;-73
2021/03/26 04:16:48;;;;;;;8.57;6.03;;;1.30;1.40;;;2.27;93.73;95835.91;646440;216;31601;-73
2021/03/26 04:19:19;;;;;;;9.45;6.57;;;1.10;1.40;;;2.06;96.60;95835.21;633783;221;32394;-73
2021/03/26 04:21:48;;;;;;;8.45;6.65;;;1.10;1.40;;;2.02;97.54;95840.23;634966;221;31927;-72
2021/03/26 04:24:20;;;;;;;10.50;6.20;;;1.00;1.40;;;2.04;97.30;95837.11;641573;221;24056;-73
2021/03/26 04:26:53;;;;;;;9.70;6.60;;;1.10;1.40;;;2.30;98.80;95842.41;633582;221;24551;-73
2021/03/26 04:29:27;;;;;;;10.13;5.90;;;1.40;1.40;;;2.38;100.00;95833.62;629555;224;24627;-73
2021/03/26 04:32:00;;;;;;;9.20;6.97;;;1.70;1.40;;;2.37;99.89;95834.61;623785;225;31891;-73
2021/03/26 04:35:51;;;;;;;9.23;6.82;;;1.50;1.40;;;2.20;98.31;95834.64;647062;216;32153;-73
2021/03/26 04:38:41;;;;;;;8.27;7.43;;;1.30;1.40;;;2.11;99.09;95838.02;644136;221;23480;-72
2021/03/26 04:41:21;;;;;;;8.48;7.10;;;1.00;1.40;;;2.06;98.11;95840.19;644990;216;31746;-73
2021/03/26 04:43:51;;;;;;;10.53;7.57;;;0.90;1.40;;;2.04;99.40;95837.70;640390;221;23453;-73
2021/03/26 04:46:27;;;;;;;9.50;7.43;;;1.00;1.40;;;1.89;100.00;95833.41;636878;221;31762;-72
2021/03/26 04:49:02;;;;;;;7.73;6.33;;;0.90;1.40;;;1.98;100.00;95834.50;641765;221;24531;-73
2021/03/26 04:51:35;;;;;;;8.27;6.73;;;1.00;1.40;;;2.01;100.00;95838.84;638320;220;26683;-73
2021/03/26 04:54:10;;;;;;;7.17;6.10;;;1.20;1.40;;;2.00;100.00;95835.38;642142;220;24495;-73
2021/03/26 04:56:44;;;;;;;8.10;7.07;;;1.20;1.40;;;2.01;99.79;95837.44;636314;221;42558;-73
2021/03/26 05:01:47;;;;;;;12.10;6.43;;;1.20;1.40;;;2.08;99.76;95836.20;647339;216;31577;-73
2021/03/26 05:04:22;;;;;;;9.10;6.97;;;1.30;1.40;;;2.10;99.94;95836.12;642704;221;23850;-72
2021/03/26 05:07:00;;;;;;;10.60;6.43;;;1.40;1.40;;;2.06;99.83;95835.36;641779;221;24532;-73
2021/03/26 05:09:30;;;;;;;10.83;6.30;;;1.30;1.40;;;2.10;99.77;95836.12;639708;221;24551;-73
2021/03/26 05:11:59;;;;;;;11.13;6.57;;;1.30;1.40;;;2.10;99.47;95842.02;641299;221;29845;-73
2021/03/26 05:14:45;;;;;;;7.77;5.60;;;1.20;1.40;;;2.18;98.80;95848.08;640884;220;24612;-73
2021/03/26 05:17:29;;;;;;;10.25;6.60;;;1.40;1.40;;;2.09;98.25;95846.17;649334;216;42273;-73
2021/03/26 05:20:10;;;;;;;6.83;6.10;;;1.30;1.40;;;2.00;98.27;95845.17;639624;221;23511;-73
2021/03/26 05:23:05;;;;;;;8.90;6.62;;;1.10;1.40;;;1.93;97.25;95843.94;634909;220;31948;-73
2021/03/26 05:25:44;;;;;;;7.15;5.87;;;0.90;1.40;;;1.73;97.60;95836.06;640681;212;31746;-73
2021/03/26 05:28:13;;;;;;;8.02;6.20;;;0.80;1.40;;;1.83;97.01;95838.77;624749;225;32454;-72
2021/03/26 05:30:43;;;;;;;10.50;6.35;;;0.70;1.40;;;1.98;97.90;95839.53;623136;224;31883;-73
2021/03/26 05:35:57;;;;;;;9.10;6.60;;;1.20;1.40;;;2.23;97.64;95837.92;646915;216;31694;-73
2021/03/26 05:38:28;;;;;;;7.60;6.30;;;1.30;1.40;;;2.26;96.58;95835.95;639702;220;25639;-72
2021/03/26 05:40:58;;;;;;;8.10;6.30;;;1.20;1.40;;;2.26;96.48;95833.05;640439;220;24554;-72
2021/03/26 05:43:36;;;;;;;8.50;6.20;;;1.20;1.40;;;2.23;97.11;95843.92;673150;211;25827;-72
2021/03/26 05:46:37;;;;;;;11.03;6.83;;;1.20;1.40;;;2.32;97.67;95831.49;667439;211;30805;-72
2021/03/26 05:49:27;;;;;;;9.20;7.87;;;1.40;1.40;;;2.47;98.21;95828.33;649420;212;31591;-73
2021/03/26 05:52:21;;;;;;;10.68;6.75;;;1.60;1.40;;;2.57;97.54;95829.50;636566;221;31822;-73
2021/03/26 05:55:19;;;;;;;11.12;8.20;;;1.70;1.40;;;2.88;96.79;95830.75;617197;226;31933;-73
2021/03/26 05:58:22;;;;;;;12.37;8.65;;;2.10;1.40;;;3.15;94.97;95830.34;647351;212;31596;-73
2021/03/26 06:01:17;;;;;;;11.77;7.43;;;2.30;1.40;;;3.27;94.25;95835.02;642946;220;24609;-73
2021/03/26 06:04:17;;;;;;;9.67;7.40;;;2.60;1.40;;;3.38;93.68;95833.20;643820;221;24490;-73
2021/03/26 06:07:09;;;;;;;9.67;5.70;;;2.60;1.40;;;3.62;92.32;95828.41;640281;220;24510;-73
2021/03/26 06:09:47;;;;;;;9.75;7.70;;;2.90;1.40;;;3.69;91.41;95830.74;644290;216;31549;-73
2021/03/26 06:12:37;;;;;;;9.70;6.67;;;3.10;1.40;;;3.73;91.31;95827.80;642418;220;23825;-73
2021/03/26 06:15:33;;;;;;;9.10;7.00;;;3.10;1.40;;;3.85;90.55;95828.41;621645;226;32158;-72
2021/03/26 06:18:35;;;;;;;12.53;7.47;;;3.20;1.40;;;3.93;89.89;95830.98;610578;229;32133;-73
2021/03/26 06:21:24;;;;;;;9.55;6.20;;;3.20;1.40;;;4.08;88.83;95832.53;647745;212;31739;-73
2021/03/26 06:23:59;;;;;;;9.20;6.53;;;3.30;1.40;;;4.08;88.66;95827.05;639750;220;23755;-72
2021/03/26 06:26:52;;;;;;;6.97;5.60;;;3.40;1.40;;;4.20;88.33;95828.70;631688;221;24582;-72
2021/03/26 06:29:34;;;;;;;7.55;5.30;;;3.60;1.40;;;4.46;86.41;95822.98;647455;216;31587;-73
2021/03/26 06:32:58;;;;;;;13.07;6.00;;;3.70;1.40;;;4.69;84.87;95822.34;635420;220;42749;-72
2021/03/26 06:35:56;;;;;;;6.43;5.18;;;4.00;1.40;;;4.95;83.67;95822.49;648910;216;32199;-73
2021/03/26 06:38:34;;;;;;;6.37;5.43;;;4.10;1.40;;;5.15;82.25;95822.58;642349;220;23482;-73
2021/03/26 06:41:15;;;;;;;5.80;5.00;;;4.30;1.40;;;5.26;81.37;95822.55;639023;221;24547;-73
2021/03/26 06:44:04;;;;;;;7.50;5.20;;;4.50;1.40;;;5.43;80.76;95820.88;635573;221;31828;-73
2021/03/26 06:46:57;;;;;;;8.47;5.63;;;4.60;1.40;;;5.59;80.14;95817.63;641189;221;23493;-74
2021/03/26 06:49:47;;;;;;;8.70;5.20;;;4.70;1.40;;;5.74;78.67;95816.38;638914;221;24535;-73
2021/03/26 06:52:37;;;;;;;6.47;4.60;;;5.00;1.40;;;5.95;78.34;95813.94;639532;220;24531;-73
2021/03/26 06:55:26;;;;;;;5.40;4.70;;;5.20;1.40;;;6.12;76.62;95813.16;643567;221;24495;-75
2021/03/26 06:58:51;;;;;;;5.20;4.50;;;5.40;1.40;;;6.26;75.78;95811.85;646854;216;31611;-73
2021/03/26 07:01:43;;;;;;;6.40;4.35;;;5.60;1.40;;;6.53;75.06;95806.09;645421;212;31602;-73
2021/03/26 07:04:31;;;;;;;4.70;3.67;;;5.70;1.40;;;6.65;74.15;95808.89;638771;221;23590;-73
2021/03/26 07:07:23;;;;;;;4.32;3.90;;;5.90;1.40;;;6.81;72.61;95801.41;620813;226;32180;-73
2021/03/26 07:10:14;;;;;;;5.20;3.63;;;5.90;1.40;;;6.98;71.74;95803.40;614833;230;24593;-73
2021/03/26 07:15:59;;;;;;;5.60;3.50;;;6.30;1.40;;;7.28;69.57;95804.29;644915;216;31595;-73
2021/03/26 07:18:59;;;;;;;5.40;4.43;;;6.50;1.40;;;7.40;69.62;95801.59;641651;220;23497;-70
2021/03/26 07:23:11;;;;;;;4.63;3.83;;;6.80;1.40;;;7.78;68.69;95801.11;647088;216;31560;-73
2021/03/26 07:28:32;;;;;;;5.18;4.10;;;7.10;1.40;;;8.09;68.32;95797.36;618837;226;31971;-73
2021/03/26 07:31:27;;;;;;;6.00;4.10;;;7.30;1.40;;;8.18;67.23;95795.41;616217;229;23565;-73
2021/03/26 07:36:16;;;;;;;3.80;3.40;;;7.50;1.40;;;8.54;66.79;95793.54;647946;213;31692;-74
2021/03/26 07:38:45;;;;;;;4.10;3.70;;;7.80;1.40;;;8.78;65.75;95798.74;640217;221;25861;-73
2021/03/26 07:41:36;;;;;;;4.60;4.20;;;7.90;1.40;;;8.92;65.20;95793.77;642365;219;24590;-74
2021/03/26 07:44:36;;;;;;;5.03;3.90;;;8.10;1.40;;;9.17;64.51;95792.94;646492;216;42239;-73
2021/03/26 07:50:30;;;;;;;7.80;4.10;;;8.50;1.40;;;9.47;63.41;95795.17;616159;224;32303;-78
2021/03/26 07:53:04;;;;;;;4.90;4.40;;;8.60;1.40;;;9.73;63.00;95801.58;611376;229;32151;-78
2021/03/26 07:55:41;;;;;;;5.17;4.67;;;8.80;1.40;;;9.77;62.63;95799.41;617402;230;23701;-78
2021/03/26 07:58:40;;;;;;;6.00;4.47;;;9.00;1.40;;;9.92;62.87;95799.66;616935;230;24601;-78
2021/03/26 08:01:36;;;;;;;5.00;4.03;;;9.00;1.40;;;10.25;62.39;95794.19;619301;226;31928;-75
2021/03/26 08:07:09;;;;;;;6.35;5.43;;;9.60;1.40;;;10.64;60.06;95787.29;651212;216;31588;-79
2021/03/26 08:10:00;;;;;;;5.83;5.13;;;9.70;1.40;;;10.88;58.95;95782.62;641397;221;27812;-80
2021/03/26 08:12:51;;;;;;;6.43;5.17;;;9.90;1.40;;;10.82;58.45;95782.02;642889;220;24608;-79
2021/03/26 08:15:30;;;;;;;7.23;6.53;;;9.90;1.40;;;10.85;57.42;95780.94;639331;221;24533;-77
2021/03/26 08:18:26;;;;;;;6.37;5.07;;;10.00;1.40;;;11.17;56.21;95787.69;639828;221;24594;-78
2021/03/26 08:21:17;;;;;;;8.25;6.55;;;10.30;1.40;;;11.36;55.79;95779.63;646240;212;32185;-75
2021/03/26 08:24:02;;;;;;;9.02;7.43;;;10.40;1.40;;;11.63;56.21;95779.66;634923;221;31731;-75
2021/03/26 08:27:07;;;;;;;9.60;6.27;;;10.50;1.40;;;11.64;55.20;95780.30;631876;225;23530;-76
2021/03/26 08:30:03;;;;;;;8.67;6.90;;;10.80;1.40;;;11.91;56.02;95779.92;648676;216;31556;-79
2021/03/26 08:32:40;;;;;;;11.07;8.43;;;11.10;1.40;;;12.05;57.29;95780.11;654694;218;24518;-79
2021/03/26 08:36:32;;;;;;;10.18;8.35;;;11.40;1.40;;;12.56;56.67;95776.50;645529;216;32947;-75
2021/03/26 08:39:26;;;;;;;13.15;8.80;;;11.70;1.40;;;12.90;55.50;95781.63;649751;216;31561;-75
2021/03/26 08:42:04;;;;;;;9.63;8.43;;;11.90;1.40;;;13.02;54.29;95780.27;639377;220;32143;-75
2021/03/26 08:44:33;;;;;;;11.17;7.50;;;12.00;1.40;;;13.24;52.84;95784.44;645919;219;27916;-75
2021/03/26 08:47:02;;;;;;;10.00;7.50;;;12.40;1.40;;;13.27;53.53;95784.61;670586;211;24431;-75
2021/03/26 08:49:46;;;;;;;9.48;7.90;;;12.30;1.40;;;13.44;50.95;95787.61;663936;211;31390;-75
2021/03/26 08:52:48;;;;;;;11.07;7.40;;;12.40;1.40;;;14.13;51.77;95786.28;645838;216;32215;-75
2021/03/26 08:55:36;;;;;;;8.25;6.82;;;12.90;1.40;;;14.10;49.50;95791.41;638648;221;31776;-75
2021/03/26 08:58:20;;;;;;;8.70;6.60;;;13.10;1.40;;;14.08;49.81;95787.48;647946;216;31590;-75
2021/03/26 09:01:23;;;;;;;9.40;7.30;;;12.90;1.40;;;14.16;48.05;95786.96;641577;221;26970;-75
2021/03/26 09:04:20;;;;;;;9.93;6.93;;;13.00;1.40;;;14.88;47.18;95786.02;641084;221;28838;-75
2021/03/26 09:07:13;;;;;;;8.90;7.00;;;14.40;1.40;;;16.66;43.10;95779.85;647456;216;31756;-75
2021/03/26 09:09:47;;;;;;;11.47;7.10;;;18.00;1.40;;;18.05;41.77;95780.48;642295;220;23550;-76
2021/03/26 09:12:20;;;;;;;8.40;6.97;;;18.90;1.40;;;20.65;41.48;95775.64;654303;216;23549;-76
2021/03/26 09:14:58;;;;;;;11.67;7.77;;;20.70;1.40;;;22.21;39.22;95773.16;669140;211;24407;-76
2021/03/26 09:17:48;;;;;;;12.68;7.95;;;21.90;1.40;;;24.47;37.22;95775.34;649483;215;31687;-77
2021/03/26 09:20:44;;;;;;;10.38;8.65;;;22.20;1.40;;;24.97;34.61;95766.52;648533;212;31648;-76
2021/03/26 09:23:27;;;;;;;9.90;8.30;;;22.40;1.40;;;25.43;36.86;95764.89;620122;225;32180;-76
2021/03/26 09:25:59;;;;;;;8.87;7.23;;;22.50;1.40;;;25.88;33.34;95760.08;609482;229;25282;-76
2021/03/26 09:28:35;;;;;;;11.27;9.63;;;22.70;1.40;;;27.30;33.24;95764.22;618518;229;32030;-77
2021/03/26 09:35:54;;;;;;;9.88;8.43;;;23.20;1.40;;;27.07;33.80;95758.20;650869;212;31729;-79
2021/03/26 09:38:34;;;;;;;10.43;8.90;;;23.60;1.40;;;27.94;28.24;95755.67;640805;220;22505;-79
2021/03/26 09:41:25;;;;;;;11.30;9.73;;;23.70;1.40;;;26.61;34.29;95755.61;643451;220;23524;-79
2021/03/26 09:44:01;;;;;;;10.87;9.30;;;23.00;1.40;;;27.44;31.26;95755.17;643334;220;23531;-78
2021/03/26 09:46:38;;;;;;;12.00;9.30;;;23.40;1.40;;;29.39;31.01;95748.11;641364;221;23574;-78
2021/03/26 09:49:32;;;;;;;12.73;9.70;;;24.60;1.40;;;31.14;26.95;95748.31;644211;221;23527;-78
2021/03/26 09:52:32;;;;;;;11.85;9.80;;;24.60;1.40;;;28.92;28.66;95750.44;647796;216;31646;-75
2021/03/26 09:55:05;;;;;;;10.70;8.30;;;24.50;1.40;;;30.79;26.13;95742.85;637801;220;31724;-75
2021/03/26 09:58:04;;;;;;;11.17;8.77;;;25.50;1.40;;;31.59;25.57;95742.20;647765;219;23549;-76
2021/03/26 10:01:00;;;;;;;10.40;9.33;;;25.70;1.40;;;31.57;24.93;95742.66;671878;211;23458;-75
2021/03/26 10:03:54;;;;;;;11.45;9.23;;;25.00;1.40;;;31.27;24.77;95744.95;646189;216;31621;-75
2021/03/26 10:09:27;;;;;;;10.20;9.20;;;24.70;1.40;;;30.91;25.45;95737.31;647184;216;31576;-77
2021/03/26 10:12:01;;;;;;;10.53;8.90;;;24.10;1.40;;;29.18;26.14;95733.42;639766;221;22481;-75
2021/03/26 10:14:34;;;;;;;10.17;9.07;;;23.80;1.40;;;30.40;24.72;95731.58;645544;219;25972;-75
2021/03/26 10:17:26;;;;;;;12.27;9.67;;;24.60;1.40;;;29.65;26.83;95729.99;670874;211;23419;-76
2021/03/26 10:20:06;;;;;;;9.60;8.63;;;24.60;1.40;;;31.56;23.25;95733.42;646874;216;32361;-75
2021/03/26 10:22:53;;;;;;;12.35;9.65;;;25.10;1.40;;;33.03;24.68;95727.65;634439;221;31741;-76
2021/03/26 10:28:12;;;;;;;10.20;9.07;;;26.00;1.40;;;32.07;22.88;95722.80;646784;216;31609;-75
2021/03/26 10:30:42;;;;;;;12.33;9.27;;;24.80;1.40;;;29.54;26.18;95714.02;643626;220;23548;-76
2021/03/26 10:35:58;;;;;;;10.38;8.68;;;25.00;1.40;;;32.72;22.55;95709.00;647320;216;32231;-77
2021/03/26 10:39:06;;;;;;;10.13;9.03;;;25.90;1.40;;;30.22;22.91;95711.35;638597;221;31965;-77
2021/03/26 10:42:05;;;;;;;11.27;9.30;;;25.80;1.40;;;33.79;21.65;95703.86;646995;212;42214;-76
2021/03/26 10:45:02;;;;;;;9.67;8.70;;;26.40;1.40;;;32.60;22.12;95708.51;642754;216;22493;-75
2021/03/26 10:47:55;;;;;;;10.38;9.23;;;25.00;1.40;;;33.13;21.90;95699.96;648503;216;31645;-76
2021/03/26 10:50:40;;;;;;;10.75;8.57;;;26.00;1.40;;;29.08;22.51;95692.44;619792;226;32030;-78
2021/03/26 10:55:54;;;;;;;10.20;9.00;;;24.50;1.40;;;32.82;22.08;95683.78;646953;212;31568;-78
2021/03/26 10:58:42;;;;;;;10.17;8.60;;;26.20;1.40;;;33.66;21.41;95671.03;641352;220;23521;-77
2021/03/26 11:01:14;;;;;;;9.27;8.27;;;25.90;1.40;;;34.37;20.35;95671.73;642327;221;29881;-77
2021/03/26 11:03:45;;;;;;;10.73;7.80;;;27.40;1.40;;;34.87;19.89;95667.95;640629;220;23521;-77
2021/03/26 11:06:24;;;;;;;10.70;8.57;;;26.90;1.40;;;35.50;19.45;95666.51;640479;220;23511;-78
2021/03/26 11:09:09;;;;;;;8.90;7.27;;;27.60;1.40;;;32.92;20.70;95669.39;638788;220;23516;-77
2021/03/26 11:12:28;;;;;;;9.80;8.77;;;26.30;1.40;;;32.64;20.36;95664.63;648487;216;31537;-79
2021/03/26 11:15:04;;;;;;;9.80;8.43;;;26.40;1.40;;;33.65;20.34;95653.45;639034;221;22523;-76
2021/03/26 11:17:39;;;;;;;9.90;8.90;;;26.90;1.40;;;33.01;19.89;95663.28;641838;221;25958;-77
2021/03/26 11:20:13;;;;;;;12.17;8.00;;;26.30;1.40;;;34.13;19.95;95655.33;640267;221;23567;-77
2021/03/26 11:22:42;;;;;;;7.73;7.00;;;27.30;1.40;;;34.26;20.14;95656.42;641312;220;23522;-77
2021/03/26 11:25:11;;;;;;;9.33;7.40;;;27.50;1.40;;;33.10;19.65;95659.39;639039;221;23555;-77
2021/03/26 11:27:49;;;;;;;9.53;6.80;;;27.10;1.40;;;30.72;20.53;95649.63;645205;219;23526;-76
2021/03/26 11:30:31;;;;;;;8.00;7.20;;;25.50;1.40;;;32.02;21.11;95648.59;656547;216;22532;-76
2021/03/26 11:35:52;;;;;;;8.70;7.80;;;28.10;1.40;;;33.41;18.96;95634.08;650560;212;42536;-77
2021/03/26 11:38:22;;;;;;;7.80;7.00;;;26.70;1.40;;;34.83;19.07;95627.90;640414;221;22486;-77
2021/03/26 11:40:54;;;;;;;6.53;5.87;;;27.40;1.40;;;33.84;19.01;95626.69;639377;221;22507;-78
2021/03/26 11:43:25;;;;;;;7.47;6.40;;;26.50;1.40;;;34.34;18.80;95626.34;639964;221;23520;-78
2021/03/26 11:46:05;;;;;;;7.00;6.40;;;27.10;1.40;;;34.67;19.61;95618.23;640221;221;23570;-77
2021/03/26 11:48:54;;;;;;;6.83;6.13;;;27.10;1.40;;;34.69;18.47;95619.64;643493;221;22478;-81
2021/03/26 11:51:35;;;;;;;7.93;7.00;;;27.20;1.40;;;33.96;19.38;95610.56;644513;221;22408;-79
2021/03/26 11:54:11;;;;;;;6.90;6.13;;;26.60;1.40;;;34.69;17.24;95604.61;644627;220;22485;-81
2021/03/26 11:56:42;;;;;;;5.87;5.00;;;26.10;1.40;;;34.11;18.09;95603.84;649649;220;22877;-79
2021/03/26 11:59:40;;;;;;;5.73;5.13;;;26.10;1.40;;;34.04;18.09;95597.70;647130;220;23625;-78
2021/03/26 12:02:37;;;;;;;5.78;4.82;;;25.10;1.40;;;27.84;20.44;95603.80;647882;216;31613;-74
2021/03/26 12:05:26;;;;;;;8.80;4.70;;;22.10;1.40;;;26.03;22.96;95596.31;642595;220;22519;-75
2021/03/26 12:08:17;;;;;;;6.43;5.03;;;21.00;1.40;;;25.63;23.57;95595.54;647575;216;31591;-76
2021/03/26 12:13:38;;;;;;;5.18;4.15;;;20.70;1.40;;;23.66;24.76;95584.88;621033;226;32214;-79
2021/03/26 12:16:32;;;;;;;5.03;3.47;;;20.10;1.40;;;23.00;24.93;95584.33;618479;229;28925;-77
2021/03/26 12:19:06;;;;;;;5.10;3.57;;;20.10;1.40;;;23.40;24.27;95581.60;628786;225;25687;-77
2021/03/26 12:24:28;;;;;;;3.80;3.30;;;20.70;1.40;;;24.09;24.55;95573.23;647128;216;31651;-75
2021/03/26 12:26:59;;;;;;;4.00;3.37;;;21.20;1.40;;;24.07;24.16;95572.35;627333;225;22543;-75
2021/03/26 12:29:36;;;;;;;3.22;2.75;;;20.90;1.40;;;24.34;22.79;95573.34;623359;224;42533;-75
2021/03/26 12:32:07;;;;;;;3.93;3.07;;;21.20;1.40;;;23.48;23.26;95583.05;630152;225;22520;-75
2021/03/26 12:35:57;;;;;;;4.60;2.90;;;20.30;1.40;;;22.47;24.24;95579.03;646838;216;31625;-74
2021/03/26 12:38:42;;;;;;;3.43;2.90;;;20.30;1.40;;;22.32;24.64;95578.80;644757;220;23531;-75
2021/03/26 12:41:59;;;;;;;4.00;3.12;;;20.50;1.40;;;22.15;25.35;95579.75;619571;222;32010;-75
2021/03/26 12:44:53;;;;;;;3.67;3.25;;;20.10;1.40;;;22.86;25.85;95573.16;646102;212;31722;-79